createdAt,value
2022-07-25T00:00:30.411Z,83.30
2022-07-25T00:02:57.665Z,83.30
2022-07-25T00:05:24.632Z,83.50
2022-07-25T00:07:51.655Z,82.90
2022-07-25T00:10:18.857Z,83.60
2022-07-25T00:12:47.057Z,83.40
2022-07-25T00:15:15.549Z,83.50
2022-07-25T00:17:43.292Z,83.30
2022-07-25T00:20:10.973Z,83.30
2022-07-25T00:22:38.067Z,83.70
2022-07-25T00:25:06.008Z,83.70
2022-07-25T00:27:33.042Z,84.20
2022-07-25T00:30:00.443Z,84.90
2022-07-25T00:32:28.740Z,85.00
2022-07-25T00:34:56.156Z,85.20
2022-07-25T00:37:23.305Z,84.90
2022-07-25T00:39:50.261Z,85.20
2022-07-25T00:42:17.366Z,85.10
2022-07-25T00:44:44.337Z,85.40
2022-07-25T00:47:11.425Z,85.40
2022-07-25T00:49:39.824Z,85.60
2022-07-25T00:52:07.214Z,85.90
2022-07-25T00:54:34.405Z,86.50
2022-07-25T00:57:01.483Z,86.70
2022-07-25T00:59:29.444Z,86.90
2022-07-25T01:01:56.412Z,87.60
2022-07-25T01:04:23.612Z,88.20
2022-07-25T01:06:52.237Z,88.30
2022-07-25T01:09:20.519Z,88.80
2022-07-25T01:11:47.646Z,89.30
2022-07-25T01:14:14.746Z,89.60
2022-07-25T01:16:41.973Z,90.00
2022-07-25T01:19:09.279Z,90.00
2022-07-25T01:21:40.016Z,90.00
2022-07-25T01:24:09.044Z,90.10
2022-07-25T01:26:36.795Z,90.20
2022-07-25T01:29:04.298Z,90.40
2022-07-25T01:31:31.489Z,90.40
2022-07-25T01:33:58.671Z,90.80
2022-07-25T01:36:26.314Z,90.90
2022-07-25T01:38:54.865Z,90.90
2022-07-25T01:41:22.736Z,90.80
2022-07-25T01:43:50.305Z,90.60
2022-07-25T01:46:17.697Z,90.20
2022-07-25T01:48:44.887Z,90.10
2022-07-25T01:51:12.291Z,90.00
2022-07-25T01:53:39.560Z,89.00
2022-07-25T01:56:08.500Z,88.70
2022-07-25T01:58:37.097Z,88.60
2022-07-25T02:01:04.055Z,88.80
2022-07-25T02:03:31.194Z,88.40
2022-07-25T02:05:59.011Z,88.40
2022-07-25T02:08:25.988Z,88.90
2022-07-25T02:10:53.010Z,88.80
2022-07-25T02:13:21.294Z,89.00
2022-07-25T02:15:48.343Z,89.10
2022-07-25T02:18:15.815Z,89.00
2022-07-25T02:20:42.714Z,89.00
2022-07-25T02:23:09.764Z,89.70
2022-07-25T02:25:37.476Z,89.90
2022-07-25T02:31:19.106Z,90.50
2022-07-25T02:35:44.740Z,89.80
2022-07-25T02:38:13.354Z,89.60
2022-07-25T02:40:40.487Z,88.90
2022-07-25T02:43:07.630Z,88.80
2022-07-25T02:45:35.375Z,89.00
2022-07-25T02:48:02.500Z,89.40
2022-07-25T02:50:29.398Z,89.90
2022-07-25T02:52:57.930Z,90.20
2022-07-25T02:55:25.114Z,90.30
2022-07-25T02:57:52.587Z,90.50
2022-07-25T03:00:19.994Z,90.60
2022-07-25T03:02:46.960Z,90.90
2022-07-25T03:05:14.842Z,91.30
2022-07-25T03:07:43.351Z,91.60
2022-07-25T03:10:14.091Z,91.70
2022-07-25T03:12:42.285Z,91.90
2022-07-25T03:15:11.355Z,92.20
2022-07-25T03:17:39.274Z,92.10
2022-07-25T03:20:07.474Z,92.20
2022-07-25T03:22:35.292Z,92.50
2022-07-25T03:25:02.265Z,92.50
2022-07-25T03:27:30.883Z,92.60
2022-07-25T03:29:58.425Z,93.20
2022-07-25T03:32:25.471Z,92.90
2022-07-25T03:34:52.699Z,92.80
2022-07-25T03:37:19.644Z,92.50
2022-07-25T03:39:46.637Z,92.40
2022-07-25T03:42:13.572Z,92.50
2022-07-25T03:44:42.215Z,92.80
2022-07-25T03:47:09.165Z,92.90
2022-07-25T03:49:47.700Z,92.80
2022-07-25T03:52:14.850Z,92.60
2022-07-25T03:54:42.154Z,92.60
2022-07-25T03:57:11.646Z,92.60
2022-07-25T03:59:38.975Z,92.80
2022-07-25T04:02:07.373Z,92.40
2022-07-25T04:04:34.390Z,93.00
2022-07-25T04:07:01.336Z,93.00
2022-07-25T04:09:28.332Z,93.00
2022-07-25T04:12:00.817Z,93.10
2022-07-25T04:14:27.760Z,93.10
2022-07-25T04:16:54.716Z,93.20
2022-07-25T04:19:23.104Z,93.00
2022-07-25T04:21:53.210Z,93.10
2022-07-25T04:24:20.476Z,93.00
2022-07-25T04:26:47.424Z,93.20
2022-07-25T04:29:14.316Z,92.70
2022-07-25T04:31:41.476Z,92.80
2022-07-25T04:34:08.899Z,92.60
2022-07-25T04:36:37.455Z,92.60
2022-07-25T04:39:04.736Z,92.60
2022-07-25T04:43:48.525Z,92.40
2022-07-25T04:46:18.953Z,92.20
2022-07-25T04:48:46.379Z,92.20
2022-07-25T04:51:14.228Z,92.00
2022-07-25T04:53:41.234Z,91.80
2022-07-25T04:56:10.644Z,91.80
2022-07-25T04:58:37.662Z,91.50
2022-07-25T05:01:06.197Z,91.40
2022-07-25T05:03:33.511Z,91.60
2022-07-25T05:06:00.472Z,91.10
2022-07-25T05:08:27.372Z,90.70
2022-07-25T05:10:54.322Z,90.30
2022-07-25T05:13:21.624Z,90.40
2022-07-25T05:15:48.566Z,90.10
2022-07-25T05:18:17.026Z,89.80
2022-07-25T05:20:43.955Z,88.80
2022-07-25T05:23:10.881Z,89.10
2022-07-25T05:25:37.831Z,88.70
2022-07-25T05:28:05.656Z,88.80
2022-07-25T05:30:37.802Z,88.00
2022-07-25T05:33:06.865Z,87.90
2022-07-25T05:35:35.579Z,87.20
2022-07-25T05:38:02.854Z,86.90
2022-07-25T05:40:29.933Z,85.30
2022-07-25T05:43:02.406Z,83.50
2022-07-25T05:45:29.834Z,80.90
2022-07-25T05:47:56.962Z,80.20
2022-07-25T05:50:23.956Z,78.70
2022-07-25T05:52:52.649Z,77.00
2022-07-25T05:55:19.924Z,76.20
2022-07-25T05:57:47.114Z,75.10
2022-07-25T06:00:14.848Z,76.80
2022-07-25T06:02:42.100Z,76.90
2022-07-25T06:05:09.311Z,78.60
2022-07-25T06:07:36.497Z,78.10
2022-07-25T06:10:05.519Z,79.50
2022-07-25T06:12:33.689Z,79.60
2022-07-25T06:15:04.057Z,79.70
2022-07-25T06:17:32.665Z,79.60
2022-07-25T06:19:59.931Z,79.30
2022-07-25T06:22:27.196Z,78.40
2022-07-25T06:24:54.157Z,78.10
2022-07-25T06:27:27.432Z,78.80
2022-07-25T06:29:56.123Z,79.30
2022-07-25T06:32:23.275Z,79.10
2022-07-25T06:34:51.208Z,78.90
2022-07-25T06:37:18.392Z,79.60
2022-07-25T06:39:46.130Z,79.90
2022-07-25T06:42:13.356Z,77.20
2022-07-25T06:44:41.946Z,77.30
2022-07-25T06:47:14.843Z,78.00
2022-07-25T06:49:42.384Z,78.10
2022-07-25T06:52:09.413Z,77.50
2022-07-25T06:54:36.824Z,77.20
2022-07-25T06:57:04.490Z,74.90
2022-07-25T06:59:31.661Z,72.20
2022-07-25T07:02:00.312Z,67.90
2022-07-25T07:04:27.575Z,63.50
2022-07-25T07:06:55.007Z,59.00
2022-07-25T07:09:22.165Z,55.40
2022-07-25T07:11:49.160Z,54.20
2022-07-25T07:14:16.721Z,53.30
2022-07-25T07:16:43.696Z,53.50
2022-07-25T07:19:14.506Z,54.60
2022-07-25T07:21:41.595Z,54.80
2022-07-25T07:24:23.929Z,55.70
2022-07-25T07:26:52.833Z,57.40
2022-07-25T07:29:20.531Z,59.30
2022-07-25T07:31:47.896Z,60.30
2022-07-25T07:34:16.810Z,61.90
2022-07-25T07:36:43.986Z,58.60
2022-07-25T07:39:11.793Z,56.90
2022-07-25T07:41:39.192Z,56.80
2022-07-25T07:44:06.613Z,56.30
2022-07-25T07:46:33.676Z,57.20
2022-07-25T07:49:02.012Z,58.60
2022-07-25T07:51:30.670Z,59.10
2022-07-25T07:54:16.840Z,60.50
2022-07-25T07:56:45.684Z,62.10
2022-07-25T07:59:12.959Z,63.40
2022-07-25T08:01:40.174Z,63.30
2022-07-25T08:04:07.860Z,66.00
2022-07-25T08:06:36.701Z,65.90
2022-07-25T08:09:04.575Z,66.50
2022-07-25T08:11:32.023Z,65.10
2022-07-25T08:13:59.166Z,64.80
2022-07-25T08:16:26.362Z,63.10
2022-07-25T08:18:53.546Z,64.20
2022-07-25T08:21:20.504Z,65.30
2022-07-25T08:23:48.869Z,65.90
2022-07-25T08:26:16.251Z,66.40
2022-07-25T08:28:43.450Z,66.70
2022-07-25T08:31:10.890Z,66.00
2022-07-25T08:33:38.185Z,67.20
2022-07-25T08:36:05.952Z,66.60
2022-07-25T08:38:35.274Z,66.70
2022-07-25T08:41:04.066Z,67.80
2022-07-25T08:43:33.830Z,66.70
2022-07-25T08:46:01.181Z,68.00
2022-07-25T08:48:29.717Z,65.70
2022-07-25T08:50:57.542Z,65.20
2022-07-25T08:53:34.026Z,66.30
2022-07-25T08:56:09.943Z,66.50
2022-07-25T08:58:39.369Z,66.80
2022-07-25T09:01:08.014Z,69.40
2022-07-25T09:03:36.326Z,70.90
2022-07-25T09:06:13.478Z,72.90
2022-07-25T09:08:50.063Z,75.00
2022-07-25T09:11:27.585Z,76.10
2022-07-25T09:13:58.089Z,76.00
2022-07-25T09:16:29.385Z,75.50
2022-07-25T09:19:05.620Z,74.40
2022-07-25T09:21:32.804Z,71.70
2022-07-25T09:24:09.443Z,71.70
2022-07-25T09:26:49.472Z,72.10
2022-07-25T09:29:18.589Z,73.20
2022-07-25T09:31:46.224Z,71.80
2022-07-25T09:34:16.784Z,71.30
2022-07-25T09:36:51.149Z,71.60
2022-07-25T09:39:18.322Z,68.40
2022-07-25T09:41:45.381Z,69.80
2022-07-25T09:44:17.659Z,69.10
2022-07-25T09:46:44.598Z,69.80
2022-07-25T09:49:14.664Z,69.60
2022-07-25T09:51:41.761Z,67.40
2022-07-25T09:54:09.606Z,67.60
2022-07-25T09:56:37.218Z,64.20
2022-07-25T09:59:04.589Z,64.60
2022-07-25T10:01:39.479Z,64.80
2022-07-25T10:04:14.433Z,66.00
2022-07-25T10:06:50.716Z,66.90
2022-07-25T10:09:18.499Z,67.20
2022-07-25T10:12:04.173Z,67.50
2022-07-25T10:14:31.454Z,68.20
2022-07-25T10:17:01.660Z,65.40
2022-07-25T10:19:49.952Z,65.60
2022-07-25T10:22:34.245Z,65.50
2022-07-25T10:25:11.552Z,67.60
2022-07-25T10:27:43.861Z,65.30
2022-07-25T10:30:20.670Z,61.50
2022-07-25T10:32:56.485Z,61.80
2022-07-25T10:35:23.903Z,62.40
2022-07-25T10:37:51.414Z,63.10
2022-07-25T10:40:26.155Z,61.40
2022-07-25T10:42:56.926Z,63.30
2022-07-25T10:45:26.111Z,63.20
2022-07-25T10:47:55.832Z,62.80
2022-07-25T10:50:40.278Z,63.80
2022-07-25T10:53:10.445Z,64.00
2022-07-25T10:55:37.999Z,64.40
2022-07-25T10:58:22.185Z,65.20
2022-07-25T11:00:51.250Z,65.50
2022-07-25T11:03:20.275Z,66.70
2022-07-25T11:05:47.795Z,65.10
2022-07-25T11:08:23.071Z,65.80
2022-07-25T11:10:50.636Z,65.80
2022-07-25T11:13:17.670Z,66.30
2022-07-25T11:15:44.784Z,67.50
2022-07-25T11:18:12.205Z,66.60
2022-07-25T11:20:40.798Z,65.80
2022-07-25T11:23:07.987Z,65.90
2022-07-25T11:25:35.520Z,65.50
2022-07-25T11:28:04.121Z,67.50
2022-07-25T11:30:31.349Z,65.80
2022-07-25T11:32:59.624Z,67.20
2022-07-25T11:35:27.617Z,67.30
2022-07-25T11:37:56.447Z,70.20
2022-07-25T11:40:25.727Z,70.70
2022-07-25T11:42:54.242Z,69.80
2022-07-25T11:45:23.445Z,69.30
2022-07-25T11:48:01.728Z,70.70
2022-07-25T11:50:30.331Z,71.20
2022-07-25T11:53:01.986Z,68.90
2022-07-25T11:55:30.090Z,67.10
2022-07-25T11:57:58.243Z,68.90
2022-07-25T12:00:25.171Z,68.70
2022-07-25T12:02:52.675Z,67.10
2022-07-25T12:05:21.162Z,68.60
2022-07-25T12:07:50.289Z,67.50
2022-07-25T12:10:19.332Z,67.20
2022-07-25T12:12:48.688Z,68.20
2022-07-25T12:15:18.930Z,69.00
2022-07-25T12:17:46.480Z,69.60
2022-07-25T12:20:14.584Z,71.00
2022-07-25T12:22:41.789Z,70.80
2022-07-25T12:25:09.400Z,70.80
2022-07-25T12:27:37.968Z,71.90
2022-07-25T12:30:05.846Z,72.70
2022-07-25T12:32:32.895Z,73.50
2022-07-25T12:35:00.378Z,72.70
2022-07-25T12:37:27.544Z,72.60
2022-07-25T12:39:54.777Z,71.90
2022-07-25T12:42:21.844Z,72.40
2022-07-25T12:44:50.247Z,72.80
2022-07-25T12:47:17.569Z,74.60
2022-07-25T12:49:44.755Z,74.80
2022-07-25T12:52:11.806Z,75.40
2022-07-25T12:54:38.791Z,75.80
2022-07-25T12:57:05.835Z,75.80
2022-07-25T12:59:32.820Z,76.20
2022-07-25T13:02:01.284Z,76.90
2022-07-25T13:04:28.418Z,77.70
2022-07-25T13:06:56.286Z,78.80
2022-07-25T13:09:23.429Z,78.90
2022-07-25T13:11:50.416Z,76.50
2022-07-25T13:14:17.732Z,75.60
2022-07-25T13:16:45.105Z,73.10
2022-07-25T13:19:13.874Z,68.60
2022-07-25T13:21:41.230Z,70.60
2022-07-25T13:24:08.703Z,66.00
2022-07-25T13:26:37.578Z,67.10
2022-07-25T13:29:09.543Z,67.10
2022-07-25T13:31:37.465Z,65.90
2022-07-25T13:34:04.725Z,63.00
2022-07-25T13:36:33.315Z,64.30
2022-07-25T13:39:00.307Z,65.70
2022-07-25T13:41:27.908Z,65.00
2022-07-25T13:43:55.429Z,65.90
2022-07-25T13:46:22.624Z,64.50
2022-07-25T13:48:50.333Z,67.30
2022-07-25T13:51:17.773Z,65.90
2022-07-25T13:53:46.353Z,65.50
2022-07-25T13:56:13.610Z,65.20
2022-07-25T13:58:40.818Z,64.60
2022-07-25T14:01:08.100Z,63.70
2022-07-25T14:03:36.878Z,63.70
2022-07-25T14:06:03.957Z,63.80
2022-07-25T14:08:31.039Z,64.10
2022-07-25T14:10:59.646Z,64.30
2022-07-25T14:13:26.929Z,66.90
2022-07-25T14:15:54.047Z,64.00
2022-07-25T14:18:21.503Z,66.10
2022-07-25T14:20:49.666Z,66.00
2022-07-25T14:23:16.946Z,66.90
2022-07-25T14:25:43.877Z,62.70
2022-07-25T14:28:12.574Z,62.70
2022-07-25T14:30:39.732Z,61.10
2022-07-25T14:33:07.663Z,62.00
2022-07-25T14:35:35.109Z,62.10
2022-07-25T14:38:02.093Z,61.80
2022-07-25T14:40:29.025Z,63.00
2022-07-25T14:42:56.177Z,62.80
2022-07-25T14:45:24.438Z,64.60
2022-07-25T14:47:51.464Z,63.90
2022-07-25T14:50:18.640Z,61.40
2022-07-25T14:52:46.422Z,62.50
2022-07-25T14:55:13.581Z,62.00
2022-07-25T14:57:40.753Z,62.60
2022-07-25T15:00:09.763Z,63.60
2022-07-25T15:02:38.491Z,65.00
2022-07-25T15:05:05.900Z,64.80
2022-07-25T15:07:32.853Z,64.80
2022-07-25T15:09:59.850Z,63.80
2022-07-25T15:12:27.150Z,63.30
2022-07-25T15:14:54.755Z,61.80
2022-07-25T15:17:21.889Z,60.50
2022-07-25T15:19:50.466Z,59.50
2022-07-25T15:22:17.441Z,60.90
2022-07-25T15:25:17.904Z,58.60
2022-07-25T15:27:31.369Z,59.80
2022-07-25T15:29:58.290Z,59.40
2022-07-25T15:32:25.258Z,58.60
2022-07-25T15:34:53.685Z,59.20
2022-07-25T15:37:21.918Z,60.70
2022-07-25T15:39:49.188Z,60.80
2022-07-25T15:42:16.200Z,60.70
2022-07-25T15:44:43.414Z,60.40
2022-07-25T15:47:10.522Z,59.60
2022-07-25T15:49:37.619Z,61.70
2022-07-25T15:52:06.305Z,61.10
2022-07-25T15:54:33.629Z,61.30
2022-07-25T15:57:01.126Z,60.90
2022-07-25T15:59:28.513Z,61.00
2022-07-25T16:01:55.465Z,62.70
2022-07-25T16:04:22.439Z,61.60
2022-07-25T16:06:49.748Z,60.30
2022-07-25T16:09:19.327Z,61.10
2022-07-25T16:11:46.256Z,60.70
2022-07-25T16:14:13.144Z,59.70
2022-07-25T16:16:40.142Z,59.50
2022-07-25T16:19:09.503Z,60.00
2022-07-25T16:21:36.938Z,61.60
2022-07-25T16:24:04.619Z,62.00
2022-07-25T16:26:34.046Z,62.90
2022-07-25T16:29:01.416Z,63.80
2022-07-25T16:31:28.445Z,64.70
2022-07-25T16:33:55.611Z,64.40
2022-07-25T16:36:22.702Z,65.10
2022-07-25T16:38:49.675Z,64.90
2022-07-25T16:41:16.747Z,65.30
2022-07-25T16:43:45.524Z,66.60
2022-07-25T16:46:12.497Z,67.30
2022-07-25T16:48:39.465Z,66.70
2022-07-25T16:51:06.544Z,66.50
2022-07-25T16:53:33.416Z,66.00
2022-07-25T16:56:00.870Z,65.50
2022-07-25T16:58:28.038Z,65.40
2022-07-25T17:00:56.308Z,65.30
2022-07-25T17:03:23.204Z,65.70
2022-07-25T17:05:51.764Z,67.00
2022-07-25T17:08:18.778Z,67.20
2022-07-25T17:10:45.894Z,66.80
2022-07-25T17:13:13.246Z,67.30
2022-07-25T17:15:40.605Z,67.90
2022-07-25T17:18:09.136Z,69.10
2022-07-25T17:20:36.364Z,68.70
2022-07-25T17:23:03.765Z,67.80
2022-07-25T17:25:30.794Z,68.50
2022-07-25T17:27:57.791Z,68.90
2022-07-25T17:30:24.887Z,69.20
2022-07-25T17:32:53.302Z,70.00
2022-07-25T17:35:21.682Z,69.90
2022-07-25T17:37:48.632Z,69.80
2022-07-25T17:40:15.675Z,69.60
2022-07-25T17:42:45.370Z,69.30
2022-07-25T17:45:13.170Z,69.50
2022-07-25T17:47:40.810Z,69.90
2022-07-25T17:50:08.758Z,70.60
2022-07-25T17:52:37.183Z,71.60
2022-07-25T17:55:05.305Z,73.10
2022-07-25T17:57:33.107Z,73.10
2022-07-25T18:00:00.209Z,74.10
2022-07-25T18:02:27.384Z,74.10
2022-07-25T18:04:54.584Z,74.20
2022-07-25T18:07:21.645Z,74.20
2022-07-25T18:09:50.294Z,74.10
2022-07-25T18:12:17.482Z,74.20
2022-07-25T18:14:44.620Z,74.10
2022-07-25T18:17:11.504Z,74.80
2022-07-25T18:19:38.502Z,74.40
2022-07-25T18:22:05.966Z,74.30
2022-07-25T18:24:33.105Z,74.70
2022-07-25T18:27:02.292Z,76.00
2022-07-25T18:29:29.314Z,76.50
2022-07-25T18:31:56.511Z,76.70
2022-07-25T18:34:23.567Z,78.20
2022-07-25T18:36:50.907Z,78.30
2022-07-25T18:39:17.954Z,78.70
2022-07-25T18:41:44.888Z,79.10
2022-07-25T18:44:13.582Z,79.20
2022-07-25T18:46:42.494Z,79.70
2022-07-25T18:49:11.208Z,80.40
2022-07-25T18:51:39.155Z,80.40
2022-07-25T18:54:06.864Z,80.40
2022-07-25T18:56:34.372Z,80.60
2022-07-25T18:59:01.481Z,81.20
2022-07-25T19:01:31.339Z,80.90
2022-07-25T19:03:58.450Z,81.00
2022-07-25T19:06:25.692Z,80.90
2022-07-25T19:08:52.930Z,81.50
2022-07-25T19:11:19.964Z,81.00
2022-07-25T19:13:50.018Z,80.80
2022-07-25T19:16:18.429Z,80.80
2022-07-25T19:18:47.374Z,80.60
2022-07-25T19:21:15.638Z,80.70
2022-07-25T19:23:48.308Z,81.10
2022-07-25T19:26:17.925Z,81.70
2022-07-25T19:28:45.699Z,81.70
2022-07-25T19:31:17.565Z,82.40
2022-07-25T19:33:46.201Z,82.50
2022-07-25T19:36:18.242Z,82.90
2022-07-25T19:38:45.341Z,83.40
2022-07-25T19:41:12.443Z,83.70
2022-07-25T19:43:39.580Z,84.60
2022-07-25T19:46:07.055Z,84.60
2022-07-25T19:48:34.501Z,84.20
2022-07-25T19:51:02.005Z,83.70
2022-07-25T19:53:31.858Z,83.90
2022-07-25T19:55:59.585Z,83.90
2022-07-25T19:58:26.613Z,84.30
2022-07-25T20:00:53.529Z,84.70
2022-07-25T20:03:22.993Z,84.70
2022-07-25T20:05:50.811Z,85.10
2022-07-25T20:08:18.831Z,85.30
2022-07-25T20:10:50.521Z,86.80
2022-07-25T20:13:17.996Z,86.50
2022-07-25T20:15:45.037Z,88.10
2022-07-25T20:18:16.024Z,88.50
2022-07-25T20:20:46.384Z,88.90
2022-07-25T20:23:13.287Z,89.00
2022-07-25T20:25:40.395Z,89.50
2022-07-25T20:28:08.770Z,90.00
2022-07-25T20:30:35.884Z,90.30
2022-07-25T20:33:08.951Z,90.50
2022-07-25T20:35:37.716Z,90.50
2022-07-25T20:38:08.965Z,90.30
2022-07-25T20:40:37.891Z,90.60
2022-07-25T20:43:09.356Z,91.10
2022-07-25T20:45:36.801Z,91.20
2022-07-25T20:48:03.982Z,91.60
2022-07-25T20:50:31.132Z,91.60
2022-07-25T20:52:58.095Z,91.60
2022-07-25T20:55:25.019Z,91.80
2022-07-25T20:57:52.010Z,92.20
2022-07-25T21:00:21.352Z,92.50
2022-07-25T21:02:48.590Z,92.40
2022-07-25T21:05:15.567Z,92.40
2022-07-25T21:07:42.772Z,93.00
2022-07-25T21:10:10.295Z,93.30
2022-07-25T21:12:37.320Z,93.30
2022-07-25T21:15:04.658Z,93.90
2022-07-25T21:17:33.599Z,94.30
2022-07-25T21:20:00.568Z,94.50
2022-07-25T21:22:27.851Z,94.70
2022-07-25T21:24:54.955Z,94.90
2022-07-25T21:27:22.348Z,95.00
2022-07-25T21:29:49.331Z,95.10
2022-07-25T21:32:17.303Z,95.40
2022-07-25T21:34:46.032Z,95.50
2022-07-25T21:37:13.629Z,95.70
2022-07-25T21:39:40.568Z,95.80
2022-07-25T21:42:09.971Z,96.10
2022-07-25T21:44:38.822Z,96.10
2022-07-25T21:47:05.795Z,96.10
2022-07-25T21:49:51.454Z,96.60
2022-07-25T21:52:19.811Z,97.10
2022-07-25T21:54:57.416Z,97.10
2022-07-25T21:57:24.364Z,97.20
2022-07-25T21:59:51.288Z,97.60
2022-07-25T22:02:18.660Z,97.60
2022-07-25T22:04:45.754Z,97.60
2022-07-25T22:07:12.853Z,98.00
2022-07-25T22:09:41.451Z,98.50
2022-07-25T22:12:08.720Z,99.00
2022-07-25T22:14:36.869Z,99.30
2022-07-25T22:17:03.913Z,99.70
2022-07-25T22:19:31.000Z,99.80
2022-07-25T22:21:57.938Z,99.60
2022-07-25T22:24:25.065Z,99.40
2022-07-25T22:26:53.549Z,99.30
2022-07-25T22:29:20.448Z,99.60
2022-07-25T22:31:47.709Z,99.70
2022-07-25T22:34:14.667Z,99.90
2022-07-25T22:36:41.637Z,99.90
2022-07-25T22:39:08.932Z,99.90
2022-07-25T22:41:36.251Z,99.90
2022-07-25T22:44:04.688Z,99.90
2022-07-25T22:46:31.714Z,99.90
2022-07-25T22:48:59.037Z,99.90
2022-07-25T22:51:26.622Z,99.90
2022-07-25T22:53:53.672Z,99.90
2022-07-25T22:56:20.862Z,99.90
2022-07-25T22:58:49.169Z,99.90
2022-07-25T23:01:17.888Z,99.90
2022-07-25T23:03:44.975Z,99.90
2022-07-25T23:06:12.421Z,99.90
2022-07-25T23:08:39.463Z,99.90
2022-07-25T23:11:06.433Z,99.90
2022-07-25T23:13:33.619Z,99.90
2022-07-25T23:16:00.927Z,99.90
2022-07-25T23:18:32.032Z,99.90
2022-07-25T23:20:59.040Z,99.90
2022-07-25T23:23:26.282Z,99.90
2022-07-25T23:25:53.278Z,99.90
2022-07-25T23:28:20.935Z,99.90
2022-07-25T23:30:47.829Z,99.90
2022-07-25T23:33:14.808Z,99.90
2022-07-25T23:35:43.496Z,99.90
2022-07-25T23:38:10.864Z,99.90
2022-07-25T23:40:37.845Z,99.90
2022-07-25T23:43:05.030Z,99.90
2022-07-25T23:45:31.926Z,99.90
2022-07-25T23:47:58.844Z,99.90
2022-07-25T23:50:25.730Z,99.90
2022-07-25T23:52:54.098Z,99.90
2022-07-25T23:55:21.211Z,99.90
2022-07-25T23:57:48.294Z,99.90
